16 Dec 2018 11:06 UTC 2018350+11:06 UTC

Overview Datums Bench Marks Data Query Site Visit Daily QC Messages Attributes

170: National Park Service - Baffin Bay

27° 17' 49" N   97° 24' 17" W
NPSBB
United States National Park Service United States National Park Service

Station Information

National Park Service - Baffin Bay
National Park Service - Baffin Bay
more pictures
 
Station Name:National Park Service - Baffin Bay
DNR ID:170
Location:27° 17' 49" N, 97° 24' 17" W

Water Level Forecasts

Latest Observations

Series Metric English Marine Observed at
Water Temperature 14.9 °C 58.8 °F 58.8 °F Dec 15 17:12 CST
00h43m ago
Salinity 28.100 psu 28.100 psu 28.100 psu Dec 15 17:12 CST
00h43m ago
pH 8.52 pH 8.52 pH 8.52 pH Dec 15 17:12 CST
00h43m ago
Turbidity 6 ntu 6 ntu 6 ntu Dec 15 17:12 CST
00h43m ago
Dissolved Oxygen 8.92 mg/L 0.000557 lb/ft3 0.000557 lb/ft3 Dec 15 17:12 CST
00h43m ago

Maps

National Park Service - Baffin Bay
All Stations in Area
Entire Network
 

Recent Observations

Date/Time Water
Temp (°F)
Sal (psu) pH (pH) Turb (ntu) DO (lb/ft3)
Dec 15 17:00 CST 58.8 28.100 8.51 6 0.000557
Dec 15 16:00 CST 59.0 28.100 8.51 7 0.000551
Dec 15 15:00 CST 58.6 28.100 8.49 8 0.000546
Dec 15 14:00 CST 58.3 28.100 8.50 8 0.000551
Dec 15 13:00 CST 56.3 28.200 8.51 7 0.000547
Dec 15 12:00 CST 55.8 28.100 8.49 9 0.000530
Dec 15 11:00 CST 55.2 28.200 8.50 8 0.000519
Dec 15 10:00 CST 54.1 28.100 8.48 14 0.000486
Dec 15 09:00 CST 52.3 28.100 8.49 10 0.000483
Dec 15 08:00 CST 52.0 28.100 8.49 8 0.000467
Dec 15 07:00 CST 51.3 28.100 8.50 8 0.000467
Dec 15 06:00 CST 51.6 28.100 8.49 9 0.000461
Dec 15 05:00 CST 52.2 28.100 8.50 9 0.000469
Dec 15 04:00 CST 52.5 28.100 8.50 8 0.000466
Dec 15 03:00 CST 52.9 28.100 8.49 9 0.000465
Dec 15 02:00 CST 53.2 28.100 8.49 11 0.000459
Dec 15 01:00 CST 53.6 28.100 8.49 12 0.000464
Dec 15 00:00 CST 54.0 28.100 8.50 17 0.000457
Dec 14 23:00 CST 55.4 28.000 8.50 7 0.000485
Dec 14 22:00 CST 55.4 28.000 8.49 7 0.000485
Dec 14 21:00 CST 56.1 28.000 8.52 9 0.000492
Dec 14 20:00 CST 56.1 28.000 8.53 9 0.000495
Dec 14 19:00 CST 55.9 28.000 8.54 13 0.000506
Dec 14 18:00 CST 56.3 28.000 8.56 20 0.000516
Dec 14 17:00 CST 56.7 28.000 8.57 23 0.000524

Historical Data Availability